Аэропорт: Основа. Харьков

ICAO: UKHH

METAR:
2018/09/23 11:00
UKHH 231100Z 33003MPS 300V010 9999 SCT013 BKN034 11/08 Q1016 R25/290062 NOSIG
METAR:
2018/07/24 15:45
TAF 
      AMD TAF 
      AMD UKHH 241540Z 2415/2503 08003G08MPS 9999 SCT030CB BKN040 
      TEMPO 2415/2416 10006G12MPS 2100 -TSRAGR BKN007 BKN020CB 
      TEMPO 2416/2421 12010G16MPS 1200 -TSRAGR SQ SCT004 BKN007 BKN020CB